Terminal Aerodrome Forecast
Issued by NWS

Home | Current Version | Previous Version | Text Only | Print | Product List | Glossary On
Versions: 1 2 3 4 5 6 7 8 9 10 11 12 13 14
000
FTUS44 KTSA 281727
TAFFYV
TAF
KFYV 281727Z 2818/2918 19007KT 6SM BR OVC020
     FM282000 18008KT P6SM BKN035
     FM290200 16004KT P6SM VCTS BKN040CB
      TEMPO 2902/2906 2SM TSRA BR BKN020CB
     FM290600 11009KT P6SM VCTS OVC015CB
      TEMPO 2906/2910 2SM TSRA BR BKN020CB
     FM291000 14008KT 4SM -TSRA OVC012CB=

USA.gov is the U.S. government's official web portal to all federal, state and local government web resources and services.